createdAt,value
2023-07-03T00:00:12.908Z,80.77
2023-07-03T00:02:40.602Z,80.46
2023-07-03T00:05:09.863Z,80.39
2023-07-03T00:07:40.350Z,80.32
2023-07-03T00:10:08.993Z,79.78
2023-07-03T00:12:36.024Z,80.17
2023-07-03T00:15:03.155Z,80.12
2023-07-03T00:17:29.785Z,79.69
2023-07-03T00:19:56.460Z,80.17
2023-07-03T00:22:23.163Z,81.51
2023-07-03T00:24:49.811Z,81.01
2023-07-03T00:27:16.448Z,80.17
2023-07-03T00:29:43.007Z,80.92
2023-07-03T00:32:09.606Z,80.32
2023-07-03T00:34:36.144Z,80.02
2023-07-03T00:37:02.888Z,80.34
2023-07-03T00:39:29.523Z,80.44
2023-07-03T00:41:56.295Z,80.10
2023-07-03T00:44:23.900Z,80.63
2023-07-03T00:46:52.196Z,79.87
2023-07-03T00:49:21.518Z,80.35
2023-07-03T00:51:54.649Z,80.70
2023-07-03T00:54:21.808Z,80.72
2023-07-03T00:56:48.575Z,81.93
2023-07-03T00:59:16.550Z,81.51
2023-07-03T01:01:56.607Z,81.65
2023-07-03T01:04:32.350Z,81.41
2023-07-03T01:07:08.939Z,81.33
2023-07-03T01:09:49.157Z,81.90
2023-07-03T01:12:17.759Z,82.07
2023-07-03T01:14:46.942Z,81.92
2023-07-03T01:17:16.189Z,82.32
2023-07-03T01:19:46.514Z,82.46
2023-07-03T01:22:50.369Z,83.00
2023-07-03T01:25:23.477Z,82.58
2023-07-03T01:27:54.298Z,84.69
2023-07-03T01:30:23.795Z,84.51
2023-07-03T01:32:54.501Z,84.52
2023-07-03T01:35:23.878Z,84.75
2023-07-03T01:37:54.232Z,84.17
2023-07-03T01:40:25.813Z,84.06
2023-07-03T01:42:55.847Z,83.97
2023-07-03T01:45:22.756Z,84.54
2023-07-03T01:47:49.462Z,84.88
2023-07-03T01:50:24.768Z,84.94
2023-07-03T01:52:59.020Z,86.51
2023-07-03T01:55:44.386Z,85.95
2023-07-03T01:58:43.401Z,86.81
2023-07-03T02:01:21.680Z,86.48
2023-07-03T02:04:03.044Z,87.84
2023-07-03T02:06:35.611Z,88.65
2023-07-03T02:09:03.124Z,89.51
2023-07-03T02:11:29.896Z,88.84
2023-07-03T02:13:56.484Z,89.71
2023-07-03T02:16:23.145Z,90.06
2023-07-03T02:18:50.505Z,89.82
2023-07-03T02:21:17.861Z,90.07
2023-07-03T02:23:45.277Z,90.44
2023-07-03T02:26:11.953Z,90.83
2023-07-03T02:28:38.578Z,90.44
2023-07-03T02:31:05.211Z,90.06
2023-07-03T02:33:32.196Z,90.20
2023-07-03T02:36:02.670Z,90.37
2023-07-03T02:38:29.271Z,90.37
2023-07-03T02:40:55.929Z,91.37
2023-07-03T02:43:22.506Z,90.33
2023-07-03T02:45:49.906Z,90.38
2023-07-03T02:48:16.935Z,90.78
2023-07-03T02:50:43.713Z,90.78
2023-07-03T02:53:10.327Z,90.80
2023-07-03T02:55:37.068Z,91.00
2023-07-03T02:58:03.901Z,90.82
2023-07-03T03:00:30.688Z,91.78
2023-07-03T03:02:57.346Z,91.20
2023-07-03T03:05:23.929Z,91.13
2023-07-03T03:07:50.540Z,91.74
2023-07-03T03:10:17.125Z,92.07
2023-07-03T03:12:43.782Z,91.02
2023-07-03T03:15:10.800Z,92.58
2023-07-03T03:17:37.612Z,92.33
2023-07-03T03:20:05.270Z,91.84
2023-07-03T03:22:31.896Z,91.72
2023-07-03T03:24:59.635Z,92.42
2023-07-03T03:27:26.254Z,92.24
2023-07-03T03:29:52.889Z,92.63
2023-07-03T03:32:19.609Z,92.39
2023-07-03T03:34:46.194Z,92.84
2023-07-03T03:37:12.901Z,93.54
2023-07-03T03:39:39.531Z,92.66
2023-07-03T03:42:06.368Z,93.47
2023-07-03T03:44:32.988Z,93.69
2023-07-03T03:46:59.598Z,93.39
2023-07-03T03:49:26.191Z,93.90
2023-07-03T03:51:52.741Z,94.01
2023-07-03T03:54:20.335Z,93.28
2023-07-03T03:56:47.128Z,93.09
2023-07-03T03:59:13.792Z,94.01
2023-07-03T04:01:40.855Z,93.58
2023-07-03T04:04:07.456Z,93.87
2023-07-03T04:06:36.481Z,93.90
2023-07-03T04:09:03.124Z,93.40
2023-07-03T04:11:31.432Z,93.19
2023-07-03T04:13:58.313Z,93.83
2023-07-03T04:16:27.658Z,93.57
2023-07-03T04:18:54.310Z,93.87
2023-07-03T04:21:21.431Z,93.29
2023-07-03T04:23:48.630Z,94.23
2023-07-03T04:26:16.400Z,93.61
2023-07-03T04:28:43.014Z,94.09
2023-07-03T04:31:09.684Z,93.86
2023-07-03T04:33:36.325Z,94.09
2023-07-03T04:36:03.192Z,94.15
2023-07-03T04:38:29.733Z,94.57
2023-07-03T04:40:57.562Z,95.18
2023-07-03T04:43:24.254Z,93.68
2023-07-03T04:45:53.622Z,93.89
2023-07-03T04:48:20.719Z,94.06
2023-07-03T04:50:49.968Z,93.82
2023-07-03T04:53:21.897Z,93.75
2023-07-03T04:55:49.780Z,93.74
2023-07-03T04:58:16.778Z,92.91
2023-07-03T05:00:43.455Z,93.43
2023-07-03T05:03:10.456Z,90.83
2023-07-03T05:05:37.296Z,89.88
2023-07-03T05:08:04.202Z,89.66
2023-07-03T05:10:31.328Z,87.01
2023-07-03T05:12:58.109Z,83.70
2023-07-03T05:15:26.150Z,84.93
2023-07-03T05:17:57.701Z,84.01
2023-07-03T05:20:26.846Z,82.93
2023-07-03T05:22:54.050Z,81.93
2023-07-03T05:25:20.804Z,82.02
2023-07-03T05:27:47.865Z,82.34
2023-07-03T05:30:14.948Z,81.75
2023-07-03T05:32:41.959Z,80.87
2023-07-03T05:35:09.460Z,82.18
2023-07-03T05:37:39.541Z,80.24
2023-07-03T05:40:08.565Z,81.87
2023-07-03T05:42:36.903Z,81.42
2023-07-03T05:45:04.916Z,81.46
2023-07-03T05:47:31.659Z,81.23
2023-07-03T05:49:58.765Z,80.40
2023-07-03T05:52:25.637Z,79.96
2023-07-03T05:54:52.236Z,79.43
2023-07-03T05:57:18.851Z,79.17
2023-07-03T05:59:45.522Z,79.79
2023-07-03T06:02:15.300Z,77.71
2023-07-03T06:04:42.388Z,79.79
2023-07-03T06:07:10.328Z,79.13
2023-07-03T06:09:37.502Z,78.95
2023-07-03T06:12:05.813Z,78.32
2023-07-03T06:14:33.708Z,77.28
2023-07-03T06:17:01.791Z,76.83
2023-07-03T06:19:29.669Z,76.75
2023-07-03T06:21:56.942Z,77.37
2023-07-03T06:24:24.081Z,77.79
2023-07-03T06:26:51.558Z,77.02
2023-07-03T06:29:18.195Z,78.51
2023-07-03T06:31:44.793Z,78.40
2023-07-03T06:34:11.407Z,77.13
2023-07-03T06:36:38.084Z,76.38
2023-07-03T06:39:05.914Z,76.83
2023-07-03T06:41:35.775Z,76.29
2023-07-03T06:44:04.681Z,77.96
2023-07-03T06:46:31.681Z,76.70
2023-07-03T06:48:58.658Z,76.37
2023-07-03T06:51:26.033Z,76.57
2023-07-03T06:53:53.079Z,74.47
2023-07-03T06:56:21.646Z,74.36
2023-07-03T06:58:51.816Z,73.09
2023-07-03T07:01:22.091Z,74.04
2023-07-03T07:03:49.206Z,73.38
2023-07-03T07:06:26.464Z,73.12
2023-07-03T07:08:54.585Z,72.13
2023-07-03T07:11:25.091Z,73.31
2023-07-03T07:13:53.299Z,72.08
2023-07-03T07:16:35.901Z,72.39
2023-07-03T07:19:05.232Z,70.24
2023-07-03T07:21:33.979Z,70.08
2023-07-03T07:24:04.362Z,68.30
2023-07-03T07:26:34.870Z,66.35
2023-07-03T07:29:02.391Z,65.57
2023-07-03T07:31:30.110Z,64.06
2023-07-03T07:33:57.208Z,65.98
2023-07-03T07:36:26.484Z,64.81
2023-07-03T07:38:56.742Z,64.58
2023-07-03T07:41:26.267Z,65.12
2023-07-03T07:43:54.724Z,66.36
2023-07-03T07:46:22.432Z,66.23
2023-07-03T07:48:49.115Z,66.90
2023-07-03T07:51:16.026Z,67.93
2023-07-03T07:53:42.696Z,65.53
2023-07-03T07:56:11.270Z,64.25
2023-07-03T07:58:39.042Z,65.13
2023-07-03T08:01:07.134Z,66.05
2023-07-03T08:03:34.025Z,65.71
2023-07-03T08:06:04.504Z,64.20
2023-07-03T08:08:33.313Z,65.32
2023-07-03T08:11:02.791Z,65.24
2023-07-03T08:13:31.510Z,62.35
2023-07-03T08:15:58.724Z,62.27
2023-07-03T08:18:27.004Z,62.85
2023-07-03T08:20:54.360Z,61.48
2023-07-03T08:23:22.161Z,62.08
2023-07-03T08:25:54.350Z,60.67
2023-07-03T08:28:22.314Z,61.36
2023-07-03T08:30:49.493Z,62.26
2023-07-03T08:33:17.203Z,63.04
2023-07-03T08:38:14.038Z,62.76
2023-07-03T08:40:43.102Z,63.84
2023-07-03T08:43:16.411Z,65.43
2023-07-03T08:45:47.589Z,64.57
2023-07-03T08:48:19.595Z,66.44
2023-07-03T08:50:51.681Z,66.13
2023-07-03T08:53:23.439Z,67.32
2023-07-03T08:56:05.151Z,67.58
2023-07-03T08:58:32.864Z,68.11
2023-07-03T09:01:21.929Z,66.96
2023-07-03T09:03:58.028Z,68.63
2023-07-03T09:06:41.573Z,68.03
2023-07-03T09:09:35.286Z,66.55
2023-07-03T09:12:04.894Z,65.93
2023-07-03T09:14:43.244Z,65.88
2023-07-03T09:17:12.601Z,65.19
2023-07-03T09:19:48.459Z,67.20
2023-07-03T09:22:47.525Z,66.67
2023-07-03T09:25:24.060Z,66.50
2023-07-03T09:27:55.864Z,67.44
2023-07-03T09:30:22.554Z,65.43
2023-07-03T09:32:49.188Z,64.85
2023-07-03T09:35:21.715Z,64.03
2023-07-03T09:37:58.226Z,62.90
2023-07-03T09:40:28.051Z,59.54
2023-07-03T09:42:54.852Z,57.12
2023-07-03T09:45:26.482Z,58.60
2023-07-03T09:48:00.071Z,59.10
2023-07-03T09:50:36.084Z,56.83
2023-07-03T09:53:09.880Z,58.94
2023-07-03T09:55:37.722Z,59.48
2023-07-03T09:58:16.324Z,60.62
2023-07-03T10:00:56.435Z,61.62
2023-07-03T10:03:30.862Z,61.28
2023-07-03T10:12:12.783Z,59.11
2023-07-03T10:14:56.954Z,59.78
2023-07-03T10:17:35.206Z,60.80
2023-07-03T10:20:10.960Z,61.76
2023-07-03T10:22:44.457Z,62.03
2023-07-03T10:25:21.984Z,64.85
2023-07-03T10:27:56.194Z,63.39
2023-07-03T10:30:26.037Z,57.54
2023-07-03T10:35:44.051Z,56.96
2023-07-03T10:38:47.316Z,54.75
2023-07-03T10:41:51.666Z,54.71
2023-07-03T10:44:25.259Z,51.05
2023-07-03T10:47:22.061Z,52.54
2023-07-03T10:49:48.778Z,52.48
2023-07-03T10:52:21.877Z,54.37
2023-07-03T10:55:05.102Z,54.62
2023-07-03T10:57:59.282Z,56.59
2023-07-03T11:00:40.222Z,57.32
2023-07-03T11:03:28.650Z,58.83
2023-07-03T11:06:09.996Z,59.68
2023-07-03T11:08:58.949Z,62.08
2023-07-03T11:11:46.076Z,64.91
2023-07-03T11:14:27.144Z,65.92
2023-07-03T11:16:56.835Z,67.53
2023-07-03T11:22:51.123Z,68.71
2023-07-03T11:25:31.124Z,70.88
2023-07-03T11:28:11.208Z,70.74
2023-07-03T11:30:43.165Z,71.48
2023-07-03T11:33:11.760Z,72.65
2023-07-03T11:35:54.252Z,70.38
2023-07-03T11:40:58.169Z,65.91
2023-07-03T11:43:31.062Z,63.32
2023-07-03T11:45:57.585Z,62.12
2023-07-03T11:48:27.110Z,61.23
2023-07-03T11:51:03.114Z,55.67
2023-07-03T11:53:36.812Z,56.46
2023-07-03T11:56:06.307Z,55.51
2023-07-03T11:58:35.126Z,53.26
2023-07-03T12:01:28.233Z,55.49
2023-07-03T12:04:03.946Z,56.49
2023-07-03T12:06:51.562Z,55.95
2023-07-03T12:09:24.192Z,55.49
2023-07-03T12:12:08.857Z,57.10
2023-07-03T12:14:41.489Z,58.25
2023-07-03T12:17:35.536Z,59.44
2023-07-03T12:20:21.710Z,59.83
2023-07-03T12:22:51.369Z,61.02
2023-07-03T12:25:30.229Z,62.06
2023-07-03T12:28:11.061Z,61.11
2023-07-03T12:30:38.516Z,57.70
2023-07-03T12:33:05.439Z,59.32
2023-07-03T12:35:36.465Z,58.78
2023-07-03T12:38:08.422Z,59.23
2023-07-03T12:40:45.379Z,58.26
2023-07-03T12:43:20.128Z,57.86
2023-07-03T12:45:55.050Z,57.97
2023-07-03T12:48:23.851Z,57.00
2023-07-03T12:50:56.631Z,57.77
2023-07-03T12:53:24.797Z,56.40
2023-07-03T12:56:11.569Z,54.36
2023-07-03T12:58:38.804Z,53.77
2023-07-03T13:01:09.077Z,54.97
2023-07-03T13:03:41.216Z,53.58
2023-07-03T13:06:27.393Z,54.49
2023-07-03T13:08:55.996Z,53.85
2023-07-03T13:11:46.994Z,54.91
2023-07-03T13:14:23.064Z,55.47
2023-07-03T13:16:52.630Z,55.77
2023-07-03T13:19:36.543Z,55.43
2023-07-03T13:22:08.098Z,56.97
2023-07-03T13:24:43.089Z,56.30
2023-07-03T13:27:24.625Z,56.20
2023-07-03T13:29:56.628Z,56.37
2023-07-03T13:32:24.579Z,55.24
2023-07-03T13:35:06.303Z,55.50
2023-07-03T13:37:37.165Z,54.69
2023-07-03T13:40:04.917Z,53.60
2023-07-03T13:42:32.027Z,54.37
2023-07-03T13:44:58.958Z,54.08
2023-07-03T13:47:28.603Z,53.45
2023-07-03T13:49:56.149Z,55.00
2023-07-03T13:52:22.735Z,54.31
2023-07-03T13:54:49.421Z,54.36
2023-07-03T13:57:16.014Z,55.28
2023-07-03T13:59:42.602Z,55.55
2023-07-03T14:02:09.265Z,56.07
2023-07-03T14:04:36.048Z,57.68
2023-07-03T14:07:02.646Z,56.84
2023-07-03T14:09:29.233Z,55.14
2023-07-03T14:11:55.814Z,54.76
2023-07-03T14:14:22.654Z,54.49
2023-07-03T14:16:50.450Z,55.33
2023-07-03T14:19:17.060Z,54.79
2023-07-03T14:21:43.801Z,55.34
2023-07-03T14:24:10.522Z,55.69
2023-07-03T14:26:37.211Z,56.28
2023-07-03T14:29:03.835Z,57.76
2023-07-03T14:31:30.569Z,57.96
2023-07-03T14:33:57.234Z,57.67
2023-07-03T14:36:23.918Z,57.82
2023-07-03T14:38:50.745Z,55.31
2023-07-03T14:41:17.650Z,55.29
2023-07-03T14:43:44.415Z,55.63
2023-07-03T14:46:10.965Z,57.39
2023-07-03T14:48:37.561Z,57.35
2023-07-03T14:51:04.586Z,56.63
2023-07-03T14:53:31.321Z,56.87
2023-07-03T14:56:01.850Z,55.55
2023-07-03T14:58:30.091Z,56.15
2023-07-03T15:01:02.180Z,55.65
2023-07-03T15:03:29.355Z,56.11
2023-07-03T15:05:56.081Z,56.57
2023-07-03T15:08:22.704Z,56.37
2023-07-03T15:10:49.284Z,56.43
2023-07-03T15:13:16.752Z,57.17
2023-07-03T15:15:51.129Z,55.53
2023-07-03T15:18:18.258Z,56.48
2023-07-03T15:20:46.778Z,57.51
2023-07-03T15:23:15.529Z,58.30
2023-07-03T15:25:42.774Z,58.26
2023-07-03T15:28:09.357Z,57.25
2023-07-03T15:30:39.603Z,57.31
2023-07-03T15:33:06.891Z,57.67
2023-07-03T15:35:33.512Z,59.09
2023-07-03T15:38:00.064Z,58.90
2023-07-03T15:40:26.907Z,59.76
2023-07-03T15:42:54.242Z,58.16
2023-07-03T15:45:23.135Z,59.25
2023-07-03T15:47:50.164Z,57.75
2023-07-03T15:50:16.993Z,58.32
2023-07-03T15:52:43.581Z,57.25
2023-07-03T15:55:10.153Z,57.26
2023-07-03T15:57:36.827Z,57.66
2023-07-03T16:00:04.312Z,58.44
2023-07-03T16:02:30.934Z,58.07
2023-07-03T16:04:57.582Z,60.05
2023-07-03T16:07:24.222Z,58.08
2023-07-03T16:09:50.791Z,57.30
2023-07-03T16:12:17.440Z,56.18
2023-07-03T16:14:44.482Z,55.79
2023-07-03T16:17:11.144Z,54.92
2023-07-03T16:19:37.811Z,57.23
2023-07-03T16:22:04.655Z,55.86
2023-07-03T16:24:31.453Z,54.64
2023-07-03T16:26:57.999Z,55.06
2023-07-03T16:29:24.629Z,56.02
2023-07-03T16:31:51.299Z,55.22
2023-07-03T16:34:17.925Z,57.79
2023-07-03T16:36:44.536Z,56.33
2023-07-03T16:39:11.135Z,55.26
2023-07-03T16:41:39.888Z,56.21
2023-07-03T16:44:06.623Z,56.86
2023-07-03T16:46:36.978Z,55.87
2023-07-03T16:49:05.688Z,55.89
2023-07-03T16:51:32.345Z,56.42
2023-07-03T16:53:58.961Z,56.54
2023-07-03T16:56:28.079Z,56.90
2023-07-03T16:59:00.518Z,57.32
2023-07-03T17:01:29.441Z,57.60
2023-07-03T17:03:56.873Z,56.95
2023-07-03T17:06:31.473Z,58.46
2023-07-03T17:08:59.193Z,58.50
2023-07-03T17:11:26.373Z,58.18
2023-07-03T17:13:53.201Z,59.32
2023-07-03T17:16:20.702Z,58.88
2023-07-03T17:18:47.383Z,59.55
2023-07-03T17:21:14.079Z,59.90
2023-07-03T17:23:40.784Z,60.71
2023-07-03T17:26:07.458Z,61.03
2023-07-03T17:28:34.040Z,61.87
2023-07-03T17:31:05.324Z,61.52
2023-07-03T17:33:33.430Z,61.34
2023-07-03T17:36:02.240Z,61.64
2023-07-03T17:38:29.387Z,61.92
2023-07-03T17:40:58.140Z,62.57
2023-07-03T17:43:24.722Z,62.60
2023-07-03T17:45:54.411Z,63.13
2023-07-03T17:48:22.294Z,62.98
2023-07-03T17:50:50.419Z,62.40
2023-07-03T17:53:17.459Z,61.83
2023-07-03T17:55:44.770Z,62.11
2023-07-03T17:58:11.701Z,62.08
2023-07-03T18:00:38.320Z,62.05
2023-07-03T18:03:05.938Z,61.71
2023-07-03T18:05:34.388Z,62.03
2023-07-03T18:08:01.475Z,62.20
2023-07-03T18:10:30.583Z,62.23
2023-07-03T18:12:58.426Z,62.04
2023-07-03T18:15:32.345Z,62.05
2023-07-03T18:18:06.412Z,62.28
2023-07-03T18:20:33.408Z,61.28
2023-07-03T18:23:00.031Z,61.38
2023-07-03T18:25:26.726Z,61.51
2023-07-03T18:27:53.433Z,62.91
2023-07-03T18:30:20.119Z,64.27
2023-07-03T18:32:46.999Z,63.70
2023-07-03T18:35:13.815Z,64.00
2023-07-03T18:37:40.575Z,62.92
2023-07-03T18:40:07.748Z,64.77
2023-07-03T18:42:34.372Z,64.40
2023-07-03T18:45:01.077Z,64.32
2023-07-03T18:47:30.921Z,64.99
2023-07-03T18:49:58.462Z,65.55
2023-07-03T18:52:25.693Z,65.96
2023-07-03T18:54:53.170Z,64.53
2023-07-03T18:57:20.038Z,65.43
2023-07-03T18:59:47.227Z,65.21
2023-07-03T19:02:16.092Z,64.32
2023-07-03T19:04:47.021Z,64.48
2023-07-03T19:07:13.955Z,64.77
2023-07-03T19:09:40.800Z,64.62
2023-07-03T19:12:10.581Z,66.76
2023-07-03T19:14:37.207Z,68.85
2023-07-03T19:17:05.025Z,70.34
2023-07-03T19:19:31.818Z,71.84
2023-07-03T19:21:58.408Z,72.07
2023-07-03T19:24:25.038Z,73.62
2023-07-03T19:26:51.649Z,73.79
2023-07-03T19:29:18.277Z,74.99
2023-07-03T19:31:44.933Z,78.45
2023-07-03T19:34:12.177Z,80.93
2023-07-03T19:36:38.813Z,85.17
2023-07-03T19:39:05.517Z,90.57
2023-07-03T19:41:32.095Z,90.82
2023-07-03T19:43:59.786Z,93.31
2023-07-03T19:46:26.638Z,95.14
2023-07-03T19:48:53.354Z,97.91
2023-07-03T19:51:20.011Z,98.63
2023-07-03T19:53:49.802Z,100.00
2023-07-03T19:56:21.557Z,99.46
2023-07-03T19:58:48.907Z,100.00
2023-07-03T20:01:17.291Z,100.00
2023-07-03T20:03:44.437Z,100.00
2023-07-03T20:06:23.487Z,100.00
2023-07-03T20:08:54.857Z,100.00
2023-07-03T20:11:22.417Z,100.00
2023-07-03T20:13:50.885Z,100.00
2023-07-03T20:16:19.501Z,100.00
2023-07-03T20:18:55.542Z,100.00
2023-07-03T20:21:23.195Z,100.00
2023-07-03T20:23:53.288Z,100.00
2023-07-03T20:26:20.221Z,100.00
2023-07-03T20:28:47.158Z,100.00
2023-07-03T20:31:15.759Z,100.00
2023-07-03T20:33:42.711Z,100.00
2023-07-03T20:36:13.209Z,100.00
2023-07-03T20:38:40.771Z,100.00
2023-07-03T20:41:11.859Z,100.00
2023-07-03T20:43:41.813Z,100.00
2023-07-03T20:46:14.871Z,100.00
2023-07-03T20:48:42.612Z,100.00
2023-07-03T20:51:14.190Z,100.00
2023-07-03T20:53:49.493Z,100.00
2023-07-03T20:56:18.459Z,100.00
2023-07-03T20:58:47.690Z,100.00
2023-07-03T21:01:17.216Z,100.00
2023-07-03T21:03:46.580Z,100.00
2023-07-03T21:06:18.083Z,100.00
2023-07-03T21:08:46.829Z,100.00
2023-07-03T21:11:15.909Z,100.00
2023-07-03T21:13:43.970Z,100.00
2023-07-03T21:16:12.763Z,100.00
2023-07-03T21:18:40.151Z,100.00
2023-07-03T21:21:20.467Z,100.00
2023-07-03T21:23:48.373Z,100.00
2023-07-03T21:26:21.927Z,100.00
2023-07-03T21:28:50.388Z,100.00
2023-07-03T21:31:20.130Z,100.00
2023-07-03T21:33:47.000Z,100.00
2023-07-03T21:36:17.473Z,100.00
2023-07-03T21:38:44.576Z,100.00
2023-07-03T21:41:16.225Z,100.00
2023-07-03T21:43:54.143Z,100.00
2023-07-03T21:46:23.625Z,100.00
2023-07-03T21:48:53.725Z,100.00
2023-07-03T21:51:21.156Z,100.00
2023-07-03T21:53:47.877Z,100.00
2023-07-03T21:56:21.037Z,100.00
2023-07-03T21:58:50.601Z,100.00
2023-07-03T22:01:30.234Z,100.00
2023-07-03T22:03:58.473Z,100.00
2023-07-03T22:06:27.145Z,100.00
2023-07-03T22:08:54.801Z,100.00
2023-07-03T22:11:22.753Z,100.00
2023-07-03T22:13:49.471Z,100.00
2023-07-03T22:16:17.928Z,100.00
2023-07-03T22:18:45.746Z,100.00
2023-07-03T22:21:13.590Z,100.00
2023-07-03T22:23:40.386Z,100.00
2023-07-03T22:26:08.043Z,100.00
2023-07-03T22:28:34.728Z,100.00
2023-07-03T22:31:01.456Z,100.00
2023-07-03T22:33:29.266Z,100.00
2023-07-03T22:35:56.192Z,100.00
2023-07-03T22:38:23.100Z,100.00
2023-07-03T22:40:51.712Z,100.00
2023-07-03T22:43:20.846Z,100.00
2023-07-03T22:45:48.508Z,100.00
2023-07-03T22:48:15.938Z,100.00
2023-07-03T22:50:43.351Z,100.00
2023-07-03T22:53:11.636Z,100.00
2023-07-03T22:55:42.150Z,100.00
2023-07-03T22:58:10.317Z,100.00
2023-07-03T23:00:40.455Z,100.00
2023-07-03T23:03:08.472Z,100.00
2023-07-03T23:05:45.876Z,100.00
2023-07-03T23:08:17.688Z,100.00
2023-07-03T23:10:52.392Z,100.00
2023-07-03T23:13:21.903Z,100.00
2023-07-03T23:15:57.030Z,100.00
2023-07-03T23:18:24.150Z,100.00
2023-07-03T23:20:55.895Z,100.00
2023-07-03T23:23:22.870Z,100.00
2023-07-03T23:25:57.953Z,100.00
2023-07-03T23:28:32.449Z,100.00
2023-07-03T23:31:03.363Z,100.00
2023-07-03T23:33:33.635Z,100.00
2023-07-03T23:36:06.015Z,100.00
2023-07-03T23:38:33.897Z,100.00
2023-07-03T23:41:00.540Z,100.00
2023-07-03T23:43:27.747Z,100.00
2023-07-03T23:45:55.874Z,100.00
2023-07-03T23:48:23.491Z,100.00
2023-07-03T23:50:55.670Z,100.00
2023-07-03T23:53:24.560Z,100.00
2023-07-03T23:55:53.956Z,100.00
2023-07-03T23:58:22.923Z,100.00
